Current Weather

Whiteside County/Jos H Bittorf Fld

Sterling/Rockfalls, Illinois (KSQI)

Report from: Friday, June 21, 2024 5:56 PM CDT
Current time: Friday, June 21, 2024 6:37 PM CDT

Nearby weather – Weather history – Daily summaries
Weather forecast

Temperature31.7°C (89.1°F)
Heat index34.3°C (93.7°F)
Dew point20.6°C (69.1°F)
Winds 5 kts (2.6 m/s, 5.8 mph) Vrb
Winds variableWinds variable
Visibility10 mi. (16.1 km)
Clouds Few clouds 5,500 ft. (1,676 m)
Altimeter30.06 in.Hg (1018 mB)
Relative humidity52 %
Density altitude2,540 ft. (774 m)
Sea-level pressure100.4 kPa (1004 mB, 29.65 in.Hg)
Remarks Fully automated report
System requires maintenance
Automated weather observing station with precipitation discriminator
Precipitation sensor not operating
Flight conditions Visual Meteorological Conditions
Raw dataKSQI 212256Z AUTO VRB05KT 10SM FEW055 32/21 A3006 RMK AO2 SLP042 T03170206 PNO $
An error has occurred. This application may no longer respond until reloaded. Reload 🗙